Time;durP1;ratioP1;P1;durP2;ratioP2;P2;SDS_P1;SDS_P2;PMS_P1;PMS_P2;Temp;Humidity;BMP_temperature;BMP_pressure;BME280_temperature;BME280_humidity;BME280_pressure;Samples;Min_cycle;Max_cycle;Signal;HPM_P1;HPM_P2
2023/04/05 00:02:02;;;;;;;3.37;1.93;;;17.10;58.70;;;;;;5049250;28;20572;-46
2023/04/05 00:04:33;;;;;;;3.70;2.20;;;17.10;58.70;;;;;;5045621;28;20200;-46
2023/04/05 00:07:08;;;;;;;3.30;2.17;;;17.00;58.70;;;;;;5043858;28;20523;-46
2023/04/05 00:09:37;;;;;;;3.00;2.27;;;17.00;58.70;;;;;;5050163;28;20805;-47
2023/04/05 00:12:07;;;;;;;3.43;2.10;;;17.00;58.80;;;;;;5049834;28;20268;-46
2023/04/05 00:14:36;;;;;;;3.20;2.40;;;17.00;58.80;;;;;;5040161;28;20237;-46
2023/04/05 00:17:05;;;;;;;4.63;2.10;;;17.00;58.80;;;;;;5032079;28;20219;-46
2023/04/05 00:19:35;;;;;;;3.07;2.07;;;17.00;58.80;;;;;;5049431;28;20241;-46
2023/04/05 00:22:24;;;;;;;3.27;2.10;;;17.00;58.70;;;;;;5031752;28;20636;-46
2023/04/05 00:24:56;;;;;;;4.20;2.20;;;17.00;58.70;;;;;;5058116;28;20194;-46
2023/04/05 00:27:27;;;;;;;2.57;1.80;;;16.90;58.80;;;;;;5047344;28;20224;-46
2023/04/05 00:30:00;;;;;;;3.10;2.30;;;16.90;58.70;;;;;;5049620;28;20549;-46
2023/04/05 00:32:27;;;;;;;2.93;2.63;;;16.90;58.80;;;;;;5046596;28;20709;-46
2023/04/05 00:34:59;;;;;;;2.23;1.90;;;16.90;58.80;;;;;;5050078;28;20208;-46
2023/04/05 00:37:27;;;;;;;6.03;2.43;;;16.90;58.80;;;;;;5049912;28;20662;-46
2023/04/05 00:40:00;;;;;;;2.50;1.90;;;16.90;58.70;;;;;;5055106;28;20207;-46
2023/04/05 00:42:30;;;;;;;2.90;2.10;;;16.90;58.80;;;;;;5046564;28;20198;-46
2023/04/05 00:45:07;;;;;;;3.67;2.60;;;16.90;58.80;;;;;;5046196;28;20525;-46
2023/04/05 00:47:36;;;;;;;3.80;2.00;;;16.90;58.80;;;;;;5049085;28;20202;-46
2023/04/05 00:50:08;;;;;;;3.10;2.00;;;16.80;58.80;;;;;;5049130;28;20209;-46
2023/04/05 00:52:44;;;;;;;2.73;2.00;;;16.80;58.80;;;;;;5040629;28;20210;-46
2023/04/05 00:55:15;;;;;;;2.73;2.07;;;16.90;58.90;;;;;;5037501;28;20199;-46
2023/04/05 00:57:45;;;;;;;3.43;2.30;;;16.80;58.80;;;;;;5031487;28;20213;-46
2023/04/05 01:00:20;;;;;;;3.03;1.97;;;16.80;58.80;;;;;;5048262;28;20191;-46
2023/04/05 01:03:03;;;;;;;2.93;2.20;;;16.80;58.90;;;;;;5046461;28;20249;-46
2023/04/05 01:05:50;;;;;;;3.30;2.47;;;16.80;59.50;;;;;;5023544;28;20228;-46
2023/04/05 01:08:47;;;;;;;3.93;2.00;;;16.80;59.00;;;;;;5048536;28;20226;-46
2023/04/05 01:11:18;;;;;;;2.60;2.10;;;16.80;58.90;;;;;;5030510;28;20590;-47
2023/04/05 01:13:48;;;;;;;2.50;2.00;;;16.80;58.90;;;;;;5048212;28;20559;-46
2023/04/05 01:16:18;;;;;;;2.77;2.03;;;16.70;58.90;;;;;;5047629;28;20202;-46
2023/04/05 01:18:55;;;;;;;3.10;2.00;;;16.70;58.90;;;;;;5029952;28;20245;-46
2023/04/05 01:21:36;;;;;;;3.77;2.80;;;16.70;58.80;;;;;;5049734;28;20522;-46
2023/04/05 01:24:39;;;;;;;5.67;1.93;;;16.80;58.80;;;;;;5044072;28;20276;-46
2023/04/05 01:28:00;;;;;;;5.50;2.97;;;16.70;58.80;;;;;;5040619;28;20835;-46
2023/04/05 01:30:41;;;;;;;2.17;1.90;;;16.70;58.80;;;;;;5045578;28;20195;-46
2023/04/05 01:33:33;;;;;;;2.37;1.90;;;16.70;58.80;;;;;;5048883;28;20186;-46
2023/04/05 01:36:38;;;;;;;3.57;2.60;;;16.60;58.70;;;;;;5042860;28;20621;-46
2023/04/05 01:39:11;;;;;;;2.40;1.97;;;16.70;58.80;;;;;;5045115;28;20609;-46
2023/04/05 01:41:46;;;;;;;2.93;2.10;;;16.60;58.80;;;;;;5032072;28;20201;-46
2023/04/05 01:44:16;;;;;;;4.87;2.30;;;16.60;58.70;;;;;;5031266;28;20206;-46
2023/04/05 01:46:48;;;;;;;2.43;2.23;;;16.60;59.40;;;;;;5045206;28;20190;-46
2023/04/05 01:49:16;;;;;;;2.73;1.97;;;16.60;58.70;;;;;;5049811;28;20198;-46
2023/04/05 01:51:49;;;;;;;2.83;1.93;;;16.60;58.70;;;;;;5046641;28;20222;-46
2023/04/05 01:54:19;;;;;;;3.43;2.10;;;16.60;58.70;;;;;;5050378;28;20209;-46
2023/04/05 01:56:47;;;;;;;2.57;2.30;;;16.60;58.70;;;;;;5047715;28;20293;-50
2023/04/05 01:59:16;;;;;;;2.37;2.10;;;16.60;58.70;;;;;;5048944;28;20282;-46
2023/04/05 02:01:44;;;;;;;3.10;2.67;;;16.50;58.60;;;;;;5050136;28;20206;-46
2023/04/05 02:04:18;;;;;;;2.77;2.33;;;16.50;58.60;;;;;;5049833;28;20225;-46
2023/04/05 02:06:46;;;;;;;3.53;2.17;;;16.50;58.60;;;;;;5049825;28;20205;-46
2023/04/05 02:09:19;;;;;;;2.30;2.10;;;16.60;58.60;;;;;;5054845;28;20194;-46
2023/04/05 02:11:52;;;;;;;3.63;2.70;;;16.50;58.60;;;;;;5045817;28;20205;-46
2023/04/05 02:14:19;;;;;;;2.87;1.93;;;16.50;58.60;;;;;;5053437;28;20745;-46
2023/04/05 02:16:47;;;;;;;2.23;1.90;;;16.50;58.60;;;;;;5030564;28;20210;-45
2023/04/05 02:19:21;;;;;;;3.30;2.10;;;16.50;58.50;;;;;;5050363;28;20284;-46
2023/04/05 02:21:56;;;;;;;2.40;2.20;;;16.50;58.50;;;;;;5050637;28;20651;-46
2023/04/05 02:24:27;;;;;;;2.40;2.20;;;16.50;58.50;;;;;;5038771;28;20213;-46
2023/04/05 02:26:56;;;;;;;2.73;2.40;;;16.50;58.50;;;;;;5051042;28;20215;-46
2023/04/05 02:29:27;;;;;;;3.13;2.43;;;16.50;58.50;;;;;;5049855;28;20699;-46
2023/04/05 02:31:58;;;;;;;2.33;2.13;;;16.50;58.50;;;;;;5049288;28;20206;-46
2023/04/05 02:34:28;;;;;;;2.43;1.80;;;16.40;58.50;;;;;;5046302;28;20765;-46
2023/04/05 02:37:00;;;;;;;2.50;2.23;;;16.40;58.40;;;;;;5030969;28;20571;-46
2023/04/05 02:39:29;;;;;;;3.97;2.60;;;16.40;58.30;;;;;;5045952;28;20253;-46
2023/04/05 02:42:02;;;;;;;2.10;1.77;;;16.40;58.40;;;;;;5024156;28;20248;-46
2023/04/05 02:44:32;;;;;;;2.30;1.60;;;16.40;58.30;;;;;;5044679;28;20221;-46
2023/04/05 02:47:00;;;;;;;3.20;1.60;;;16.40;58.30;;;;;;5048023;28;20225;-46
2023/04/05 02:49:31;;;;;;;2.20;2.00;;;16.40;58.30;;;;;;5047945;28;20655;-46
2023/04/05 02:52:02;;;;;;;2.23;1.80;;;16.40;58.30;;;;;;5022580;28;20206;-46
2023/04/05 02:54:32;;;;;;;2.10;1.90;;;16.40;58.30;;;;;;5045513;28;20198;-46
2023/04/05 02:57:02;;;;;;;2.03;1.80;;;16.30;58.20;;;;;;5048270;28;20198;-46
2023/04/05 02:59:35;;;;;;;2.10;1.90;;;16.30;58.20;;;;;;5046243;28;20354;-46
2023/04/05 03:02:08;;;;;;;2.73;2.17;;;16.40;58.30;;;;;;5048172;28;20226;-46
2023/04/05 03:04:43;;;;;;;3.43;2.43;;;16.30;58.30;;;;;;5037467;28;20214;-46
2023/04/05 03:07:17;;;;;;;3.27;2.30;;;16.30;58.80;;;;;;5048109;28;20592;-46
2023/04/05 03:09:50;;;;;;;2.57;1.90;;;16.30;58.20;;;;;;5047388;28;20206;-48
2023/04/05 03:12:20;;;;;;;4.00;2.43;;;16.30;58.30;;;;;;5048389;28;20199;-46
2023/04/05 03:14:48;;;;;;;2.23;1.80;;;16.30;58.30;;;;;;5043995;28;20205;-46
2023/04/05 03:17:19;;;;;;;2.87;2.57;;;16.30;58.20;;;;;;5030255;28;20194;-46
2023/04/05 03:19:51;;;;;;;2.37;1.87;;;16.30;58.20;;;;;;5047392;28;20558;-46
2023/04/05 03:22:20;;;;;;;2.10;1.90;;;16.30;58.20;;;;;;5048439;28;20194;-46
2023/04/05 03:24:51;;;;;;;2.57;1.80;;;16.20;58.20;;;;;;5030630;28;20363;-46
2023/04/05 03:27:20;;;;;;;3.63;1.80;;;16.30;58.20;;;;;;5045323;28;20218;-46
2023/04/05 03:29:51;;;;;;;2.47;2.03;;;16.30;58.20;;;;;;5047978;28;20204;-46
2023/04/05 03:32:20;;;;;;;4.33;1.93;;;16.30;58.20;;;;;;5047571;28;20534;-46
2023/04/05 03:34:50;;;;;;;2.03;1.80;;;16.30;58.30;;;;;;5046099;28;20639;-46
2023/04/05 03:37:20;;;;;;;7.60;2.30;;;16.30;58.30;;;;;;5048825;28;20659;-46
2023/04/05 03:39:52;;;;;;;2.00;1.80;;;16.20;58.20;;;;;;5045012;28;20256;-46
2023/04/05 03:42:20;;;;;;;4.73;2.00;;;16.20;58.20;;;;;;5048106;28;20214;-46
2023/04/05 03:44:52;;;;;;;2.03;1.83;;;16.20;58.30;;;;;;5046653;28;20205;-46
2023/04/05 03:47:30;;;;;;;2.97;1.90;;;16.20;58.20;;;;;;5047415;28;20190;-46
2023/04/05 03:50:01;;;;;;;2.20;1.47;;;16.20;58.30;;;;;;5047245;28;20524;-45
2023/04/05 03:52:33;;;;;;;2.30;1.70;;;16.20;58.30;;;;;;5046629;28;20199;-46
2023/04/05 03:55:05;;;;;;;1.67;1.57;;;16.20;58.30;;;;;;5037675;28;20209;-46
2023/04/05 03:57:39;;;;;;;1.93;1.73;;;16.10;58.20;;;;;;5047525;28;20197;-46
2023/04/05 04:00:14;;;;;;;2.20;1.97;;;16.10;58.20;;;;;;5029754;28;20211;-46
2023/04/05 04:02:46;;;;;;;2.17;1.87;;;16.20;58.30;;;;;;5029068;28;20209;-46
2023/04/05 04:05:15;;;;;;;2.60;1.90;;;16.10;58.20;;;;;;5057152;28;20208;-46
2023/04/05 04:07:50;;;;;;;2.13;1.87;;;16.10;58.20;;;;;;5031950;28;20199;-46
2023/04/05 04:10:21;;;;;;;3.33;2.07;;;16.10;58.20;;;;;;5055875;28;20237;-45
2023/04/05 04:12:52;;;;;;;2.67;1.67;;;16.10;58.20;;;;;;5057062;28;20624;-46
2023/04/05 04:15:23;;;;;;;1.97;1.83;;;16.10;58.20;;;;;;5051812;28;20218;-46
2023/04/05 04:17:52;;;;;;;2.20;2.00;;;16.10;58.20;;;;;;5053617;28;20229;-46
2023/04/05 04:20:23;;;;;;;2.57;1.70;;;16.10;58.20;;;;;;5051137;28;20272;-45
2023/04/05 04:22:55;;;;;;;2.23;1.87;;;16.10;58.20;;;;;;5050434;28;20205;-46
2023/04/05 04:25:25;;;;;;;2.20;1.97;;;16.10;58.20;;;;;;5029613;28;20187;-46
2023/04/05 04:27:55;;;;;;;2.47;2.00;;;16.10;58.20;;;;;;5048783;28;20214;-46
2023/04/05 04:30:24;;;;;;;3.33;1.77;;;16.00;58.10;;;;;;5049351;28;20237;-46
2023/04/05 04:32:58;;;;;;;2.10;1.87;;;16.00;58.10;;;;;;5049905;28;20199;-46
2023/04/05 04:35:37;;;;;;;3.63;2.17;;;16.00;58.10;;;;;;5045677;28;20632;-46
2023/04/05 04:38:17;;;;;;;2.20;2.00;;;16.00;58.10;;;;;;5032260;28;20226;-46
2023/04/05 04:40:49;;;;;;;2.40;1.90;;;16.00;58.10;;;;;;5045534;28;20207;-46
2023/04/05 04:43:32;;;;;;;2.37;2.13;;;16.00;58.10;;;;;;5051158;28;20194;-46
2023/04/05 04:46:09;;;;;;;2.77;2.07;;;16.00;58.10;;;;;;5050501;28;20615;-46
2023/04/05 04:48:41;;;;;;;1.90;1.67;;;16.00;58.00;;;;;;5047997;28;20304;-46
2023/04/05 04:51:12;;;;;;;2.73;1.90;;;16.00;58.10;;;;;;5014061;28;20215;-46
2023/04/05 04:53:41;;;;;;;3.00;2.50;;;16.00;58.10;;;;;;5033387;28;20229;-46
2023/04/05 04:56:12;;;;;;;2.07;1.80;;;16.00;58.10;;;;;;5049151;28;20182;-46
2023/04/05 04:58:42;;;;;;;2.07;1.80;;;16.00;58.00;;;;;;5046769;28;20743;-46
2023/04/05 05:01:13;;;;;;;2.43;1.87;;;16.00;58.00;;;;;;5031295;28;20647;-46
2023/04/05 05:03:47;;;;;;;2.20;2.00;;;16.00;58.00;;;;;;5046946;28;20230;-46
2023/04/05 05:06:20;;;;;;;2.43;2.00;;;16.00;57.90;;;;;;5044372;28;20206;-46
2023/04/05 05:08:53;;;;;;;3.73;3.07;;;16.00;57.80;;;;;;5032042;28;20194;-46
2023/04/05 05:11:27;;;;;;;2.80;2.40;;;16.00;57.70;;;;;;5049535;28;20255;-46
2023/04/05 05:13:59;;;;;;;2.77;2.50;;;16.00;57.70;;;;;;5049431;28;20213;-46
2023/04/05 05:16:30;;;;;;;6.50;2.50;;;16.00;57.70;;;;;;5045805;28;20230;-46
2023/04/05 05:19:07;;;;;;;10.77;5.40;;;16.00;58.40;;;;;;5051000;28;20313;-46
2023/04/05 05:21:48;;;;;;;15.17;5.77;;;16.00;58.60;;;;;;5047626;28;20190;-46
2023/04/05 05:24:17;;;;;;;13.07;5.27;;;16.00;59.10;;;;;;5049392;28;20608;-46
2023/04/05 05:26:46;;;;;;;11.33;6.37;;;16.00;59.10;;;;;;5044537;28;20186;-46
2023/04/05 05:29:16;;;;;;;12.60;5.87;;;16.00;58.90;;;;;;5048162;28;20201;-46
2023/04/05 05:31:46;;;;;;;16.83;5.90;;;16.00;58.70;;;;;;5049150;28;20611;-46
2023/04/05 05:34:16;;;;;;;19.03;5.70;;;16.00;58.50;;;;;;5046299;28;20205;-46
2023/04/05 05:36:47;;;;;;;10.90;4.63;;;16.00;58.50;;;;;;5047410;28;20894;-46
2023/04/05 05:39:17;;;;;;;9.43;4.33;;;16.00;58.40;;;;;;5046567;28;20671;-46
2023/04/05 05:41:49;;;;;;;8.77;4.03;;;16.00;58.30;;;;;;5032240;28;20207;-46
2023/04/05 05:44:20;;;;;;;10.53;4.53;;;16.00;58.20;;;;;;5028015;28;20206;-46
2023/04/05 05:46:51;;;;;;;7.17;4.40;;;16.00;58.00;;;;;;5048270;28;20244;-46
2023/04/05 05:49:22;;;;;;;7.57;4.30;;;16.00;57.90;;;;;;5051774;28;20650;-46
2023/04/05 05:51:51;;;;;;;7.23;4.07;;;16.00;57.80;;;;;;5048892;28;20686;-46
2023/04/05 05:54:20;;;;;;;5.53;3.77;;;16.00;57.80;;;;;;5034307;28;20199;-46
2023/04/05 05:56:50;;;;;;;6.87;3.93;;;16.00;57.70;;;;;;5032589;28;20213;-46
2023/04/05 05:59:18;;;;;;;5.93;3.40;;;16.00;57.50;;;;;;5033472;28;20238;-46
2023/04/05 06:01:51;;;;;;;7.70;4.00;;;15.90;57.50;;;;;;5050845;28;20195;-46
2023/04/05 06:04:21;;;;;;;7.53;3.37;;;15.90;57.60;;;;;;5051374;28;20202;-46
2023/04/05 06:06:53;;;;;;;7.03;2.87;;;16.00;57.60;;;;;;5050734;28;20214;-46
2023/04/05 06:09:27;;;;;;;5.63;3.83;;;15.90;57.40;;;;;;5049999;28;20531;-46
2023/04/05 06:11:58;;;;;;;5.50;3.27;;;16.00;57.50;;;;;;5035053;28;20202;-46
2023/04/05 06:14:32;;;;;;;6.13;3.67;;;15.90;57.40;;;;;;5048181;28;20209;-46
2023/04/05 06:17:02;;;;;;;9.63;3.20;;;16.00;57.80;;;;;;5050225;28;20589;-46
2023/04/05 06:19:35;;;;;;;6.80;3.30;;;16.00;57.80;;;;;;5045170;28;20234;-46
2023/04/05 06:22:10;;;;;;;4.83;3.10;;;16.00;58.10;;;;;;5049738;28;20218;-46
2023/04/05 06:24:40;;;;;;;7.20;3.97;;;16.00;58.30;;;;;;5045606;28;20222;-46
2023/04/05 06:27:09;;;;;;;9.97;3.80;;;16.00;58.60;;;;;;5045932;28;20240;-46
2023/04/05 06:29:41;;;;;;;9.57;3.63;;;16.00;58.80;;;;;;5046768;28;20206;-47
2023/04/05 06:32:12;;;;;;;5.80;3.47;;;16.00;58.80;;;;;;5048179;28;20193;-46
2023/04/05 06:34:47;;;;;;;6.47;3.47;;;16.00;58.50;;;;;;5048050;28;20186;-46
2023/04/05 06:37:15;;;;;;;4.40;3.03;;;16.00;58.30;;;;;;5046734;28;20210;-46
2023/04/05 06:39:43;;;;;;;5.90;3.40;;;16.00;58.00;;;;;;5047791;28;20234;-45
2023/04/05 06:42:15;;;;;;;3.83;3.13;;;16.00;57.90;;;;;;5053169;28;20194;-45
2023/04/05 06:44:45;;;;;;;4.57;2.73;;;16.00;57.80;;;;;;5047468;28;20206;-46
2023/04/05 06:47:13;;;;;;;4.63;2.70;;;16.00;57.70;;;;;;5030572;28;20190;-46
2023/04/05 06:49:43;;;;;;;5.43;3.03;;;16.00;57.60;;;;;;5046199;28;20658;-46
2023/04/05 06:52:16;;;;;;;5.00;2.93;;;16.00;57.50;;;;;;5045719;28;20214;-46
2023/04/05 06:54:45;;;;;;;3.83;2.93;;;16.00;57.50;;;;;;5045378;28;20195;-46
2023/04/05 06:57:14;;;;;;;5.90;3.17;;;16.00;57.50;;;;;;5034790;28;20205;-46
2023/04/05 06:59:45;;;;;;;5.10;3.17;;;16.00;57.50;;;;;;5048377;28;20684;-46
2023/04/05 07:02:17;;;;;;;4.83;2.83;;;16.00;57.40;;;;;;5030266;28;20191;-46
2023/04/05 07:04:48;;;;;;;5.33;2.90;;;16.00;57.30;;;;;;5026168;28;20303;-46
2023/04/05 07:07:21;;;;;;;5.53;3.10;;;16.00;57.40;;;;;;5042722;28;20596;-46
2023/04/05 07:09:55;;;;;;;12.83;3.50;;;16.00;57.50;;;;;;5039643;28;20255;-46
2023/04/05 07:12:27;;;;;;;14.43;3.83;;;16.00;57.80;;;;;;5047851;28;20595;-46
2023/04/05 07:14:58;;;;;;;5.23;3.00;;;16.00;57.70;;;;;;5044410;28;20214;-46
2023/04/05 07:17:28;;;;;;;10.83;3.53;;;16.00;57.60;;;;;;5026342;28;20285;-46
2023/04/05 07:19:58;;;;;;;9.50;3.17;;;16.00;57.50;;;;;;5047894;28;20253;-46
2023/04/05 07:22:28;;;;;;;9.47;2.80;;;16.00;57.50;;;;;;5045337;28;20636;-46
2023/04/05 07:24:59;;;;;;;6.80;2.80;;;16.00;57.50;;;;;;5047541;28;20206;-46
2023/04/05 07:27:32;;;;;;;5.77;2.77;;;16.00;57.50;;;;;;5040967;28;20652;-46
2023/04/05 07:30:00;;;;;;;4.77;2.90;;;16.00;57.30;;;;;;5047686;28;20197;-46
2023/04/05 07:32:33;;;;;;;4.43;2.73;;;16.00;57.30;;;;;;5045534;28;20634;-46
2023/04/05 07:35:09;;;;;;;4.57;3.20;;;16.00;57.30;;;;;;5029132;28;20198;-46
2023/04/05 07:37:38;;;;;;;5.03;3.13;;;16.00;57.30;;;;;;5015861;28;20218;-46
2023/04/05 07:40:10;;;;;;;3.83;2.87;;;16.00;57.30;;;;;;5047073;28;20706;-46
2023/04/05 07:42:41;;;;;;;5.13;3.27;;;16.00;57.30;;;;;;5049314;28;20202;-46
2023/04/05 07:45:15;;;;;;;5.97;3.07;;;16.00;57.30;;;;;;5052344;28;20186;-46
2023/04/05 07:47:48;;;;;;;5.43;3.30;;;16.00;57.30;;;;;;5036136;28;20206;-47
2023/04/05 07:50:24;;;;;;;4.07;2.83;;;16.00;57.30;;;;;;5049522;28;20202;-46
2023/04/05 07:52:55;;;;;;;6.33;3.10;;;16.00;57.30;;;;;;5045593;28;20210;-46
2023/04/05 07:55:38;;;;;;;7.20;3.40;;;16.00;57.30;;;;;;5051742;28;20198;-46
2023/04/05 07:58:09;;;;;;;5.37;3.03;;;16.00;57.30;;;;;;5052961;28;20209;-46
2023/04/05 08:00:43;;;;;;;4.07;2.50;;;16.00;57.30;;;;;;5036065;28;20657;-46
2023/04/05 08:03:13;;;;;;;4.60;3.03;;;16.00;57.30;;;;;;5048515;28;20266;-46
2023/04/05 08:05:46;;;;;;;4.07;2.87;;;16.00;57.30;;;;;;5052158;28;20525;-46
2023/04/05 08:08:17;;;;;;;4.70;2.80;;;16.10;57.30;;;;;;5034006;28;20190;-46
2023/04/05 08:10:45;;;;;;;3.73;2.77;;;16.10;57.30;;;;;;5031128;28;20194;-46
2023/04/05 08:13:16;;;;;;;5.53;3.03;;;16.10;57.30;;;;;;5051274;28;20199;-46
2023/04/05 08:15:50;;;;;;;4.77;3.10;;;16.10;57.50;;;;;;5048660;28;20241;-46
2023/04/05 08:18:21;;;;;;;4.97;3.33;;;16.10;57.30;;;;;;5049750;28;20230;-46
2023/04/05 08:21:16;;;;;;;3.80;3.07;;;16.10;57.30;;;;;;5048497;28;20244;-46
2023/04/05 08:23:44;;;;;;;5.50;3.07;;;16.10;57.20;;;;;;5050787;28;20595;-46
2023/04/05 08:26:15;;;;;;;4.70;2.67;;;16.10;57.20;;;;;;5049811;28;20275;-46
2023/04/05 08:28:44;;;;;;;4.70;3.10;;;16.20;57.20;;;;;;5040035;28;20215;-46
2023/04/05 08:31:15;;;;;;;5.37;3.07;;;16.10;57.10;;;;;;5049561;28;20256;-46
2023/04/05 08:33:44;;;;;;;3.70;2.53;;;16.20;57.20;;;;;;5048388;28;20644;-46
2023/04/05 08:36:14;;;;;;;3.93;2.83;;;16.20;57.30;;;;;;5050254;28;20202;-46
2023/04/05 08:38:44;;;;;;;3.20;2.37;;;16.20;57.40;;;;;;5024024;28;20199;-46
2023/04/05 08:41:19;;;;;;;4.27;3.00;;;16.20;57.30;;;;;;5048193;28;20218;-46
2023/04/05 08:44:09;;;;;;;5.03;3.00;;;16.20;57.30;;;;;;5032289;28;20659;-46
2023/04/05 08:46:43;;;;;;;6.13;2.67;;;16.20;57.40;;;;;;5043955;28;20202;-46
2023/04/05 08:49:16;;;;;;;3.73;3.10;;;16.20;57.60;;;;;;5048949;28;20205;-46
2023/04/05 08:51:49;;;;;;;3.20;2.60;;;16.20;58.30;;;;;;5042427;28;20609;-46
2023/04/05 08:54:30;;;;;;;4.33;2.90;;;16.20;58.90;;;;;;5047330;28;20194;-46
2023/04/05 08:57:07;;;;;;;5.40;2.97;;;16.30;59.70;;;;;;5033483;28;20248;-46
2023/04/05 08:59:42;;;;;;;5.23;3.13;;;16.30;60.10;;;;;;5033200;28;20251;-46
2023/04/05 09:02:18;;;;;;;4.13;2.80;;;16.30;60.60;;;;;;5033049;28;20198;-46
2023/04/05 09:04:51;;;;;;;7.00;3.73;;;16.30;61.20;;;;;;5046097;28;20187;-46
2023/04/05 09:07:25;;;;;;;15.63;5.10;;;16.30;61.60;;;;;;5032718;28;20194;-46
2023/04/05 09:09:59;;;;;;;13.90;4.30;;;16.40;61.90;;;;;;5032466;28;20239;-46
2023/04/05 09:12:29;;;;;;;8.67;4.53;;;16.30;61.70;;;;;;5045486;28;20198;-46
2023/04/05 09:15:06;;;;;;;10.57;3.63;;;16.40;61.60;;;;;;5045898;28;20222;-46
2023/04/05 09:17:57;;;;;;;12.53;4.43;;;16.40;61.50;;;;;;5026313;28;20198;-46
2023/04/05 09:21:04;;;;;;;7.20;3.70;;;16.40;61.50;;;;;;5026902;28;20230;-46
2023/04/05 09:23:35;;;;;;;11.73;3.63;;;16.40;62.20;;;;;;5028581;28;20222;-46
2023/04/05 09:26:26;;;;;;;7.97;3.70;;;16.40;61.50;;;;;;5012427;28;20195;-46
2023/04/05 09:28:55;;;;;;;6.03;2.87;;;16.40;61.40;;;;;;5026584;28;20688;-45
2023/04/05 09:31:29;;;;;;;6.00;3.17;;;16.40;61.40;;;;;;5029079;28;20199;-46
2023/04/05 09:34:07;;;;;;;5.67;3.57;;;16.40;61.30;;;;;;5024505;28;20249;-46
2023/04/05 09:36:44;;;;;;;6.23;3.00;;;16.40;61.40;;;;;;5026008;28;20191;-46
2023/04/05 09:39:20;;;;;;;7.67;3.23;;;16.40;61.40;;;;;;5010233;28;20227;-46
2023/04/05 09:42:21;;;;;;;5.00;3.30;;;16.40;62.10;;;;;;5026270;28;20252;-46
2023/04/05 09:45:04;;;;;;;8.43;2.53;;;16.40;61.40;;;;;;5025490;28;20215;-46
2023/04/05 09:47:37;;;;;;;6.97;2.73;;;16.50;62.00;;;;;;5026893;28;20196;-47
2023/04/05 09:50:18;;;;;;;3.90;2.70;;;16.50;61.70;;;;;;5027603;28;20199;-46
2023/04/05 09:53:04;;;;;;;6.20;2.90;;;16.50;61.60;;;;;;5023334;28;20206;-46
2023/04/05 09:55:33;;;;;;;5.97;3.00;;;16.50;61.90;;;;;;5008542;28;20206;-46
2023/04/05 09:58:10;;;;;;;6.77;2.53;;;16.50;62.30;;;;;;5006958;28;20257;-46
2023/04/05 10:00:57;;;;;;;4.90;2.90;;;16.60;62.30;;;;;;5008860;28;20231;-46
2023/04/05 10:03:49;;;;;;;5.70;2.90;;;16.60;62.50;;;;;;5026612;28;20203;-46
2023/04/05 10:06:18;;;;;;;6.37;2.63;;;16.60;62.80;;;;;;5025673;28;20195;-46
2023/04/05 10:08:50;;;;;;;6.47;2.87;;;16.60;62.80;;;;;;5027293;28;20200;-46
2023/04/05 10:11:22;;;;;;;4.33;2.90;;;16.60;62.90;;;;;;5011809;28;20206;-46
2023/04/05 10:13:50;;;;;;;3.40;2.50;;;16.60;63.10;;;;;;5028713;28;20600;-46
2023/04/05 10:16:25;;;;;;;4.93;2.60;;;16.60;63.20;;;;;;5026885;28;20241;-46
2023/04/05 10:18:56;;;;;;;3.97;2.47;;;16.60;63.40;;;;;;5033225;28;20240;-46
2023/04/05 10:21:31;;;;;;;3.13;2.30;;;16.60;63.30;;;;;;5048969;28;20859;-46
2023/04/05 10:24:33;;;;;;;6.53;3.17;;;16.60;63.40;;;;;;5035729;28;20214;-46
2023/04/05 10:27:18;;;;;;;4.60;3.00;;;16.60;63.30;;;;;;5045244;28;20218;-46
2023/04/05 10:30:23;;;;;;;4.00;2.67;;;16.70;63.40;;;;;;5052139;28;20772;-46
2023/04/05 10:33:02;;;;;;;5.20;2.40;;;16.60;63.40;;;;;;5033382;28;20581;-46
2023/04/05 10:35:53;;;;;;;3.67;2.60;;;16.70;63.70;;;;;;5048079;28;20280;-46
2023/04/05 10:38:34;;;;;;;3.23;2.40;;;16.70;63.60;;;;;;5044915;28;20734;-47
2023/04/05 10:41:13;;;;;;;2.33;1.93;;;16.70;63.80;;;;;;5030801;28;20651;-46
2023/04/05 10:43:48;;;;;;;9.00;3.00;;;16.70;63.90;;;;;;5045432;28;20193;-46
2023/04/05 10:46:22;;;;;;;2.97;2.03;;;16.70;63.90;;;;;;5048102;28;20382;-46
2023/04/05 10:49:00;;;;;;;3.60;2.40;;;16.70;64.10;;;;;;5027265;28;20198;-46
2023/04/05 10:51:30;;;;;;;4.30;2.20;;;16.70;64.00;;;;;;5038443;28;20769;-46
2023/04/05 10:54:06;;;;;;;3.07;2.23;;;16.80;64.30;;;;;;5045958;28;20650;-46
2023/04/05 10:56:37;;;;;;;4.07;2.77;;;16.70;64.20;;;;;;5039447;28;20244;-46
2023/04/05 10:59:11;;;;;;;3.10;2.37;;;16.70;64.20;;;;;;5009702;28;20237;-46
2023/04/05 11:01:42;;;;;;;4.30;2.17;;;16.80;64.30;;;;;;5041976;28;20221;-46
2023/04/05 11:04:23;;;;;;;3.03;2.53;;;16.80;63.90;;;;;;5042099;28;20683;-46
2023/04/05 11:07:20;;;;;;;2.30;2.03;;;16.80;64.30;;;;;;5027754;28;20643;-46
2023/04/05 11:10:01;;;;;;;2.93;2.33;;;16.80;63.90;;;;;;5044908;28;20985;-46
2023/04/05 11:12:51;;;;;;;3.90;2.40;;;16.80;64.00;;;;;;5044675;28;20198;-46
2023/04/05 11:15:34;;;;;;;3.00;2.30;;;16.80;64.30;;;;;;5045949;28;20229;-46
2023/04/05 11:18:21;;;;;;;3.30;1.90;;;16.80;63.30;;;;;;5048722;28;20220;-46
2023/04/05 11:21:04;;;;;;;2.67;1.63;;;16.90;64.20;;;;;;5046535;28;20747;-46
2023/04/05 11:24:10;;;;;;;3.03;2.17;;;16.80;63.70;;;;;;5048000;28;20182;-46
2023/04/05 11:26:52;;;;;;;2.77;2.33;;;16.90;63.90;;;;;;5038085;28;20217;-46
2023/04/05 11:29:48;;;;;;;3.77;2.57;;;16.90;64.50;;;;;;5048361;28;20674;-46
2023/04/05 11:32:17;;;;;;;3.27;2.10;;;16.90;63.70;;;;;;5045599;28;20202;-46
2023/04/05 11:35:22;;;;;;;3.07;1.90;;;16.90;64.00;;;;;;5045073;28;20926;-46
2023/04/05 11:38:07;;;;;;;2.40;2.20;;;16.90;64.20;;;;;;5049034;28;20201;-46
2023/04/05 11:40:39;;;;;;;2.77;1.97;;;16.90;64.40;;;;;;5047054;28;20259;-46
2023/04/05 11:43:12;;;;;;;3.23;2.20;;;16.90;64.50;;;;;;5027632;28;20546;-46
2023/04/05 11:45:45;;;;;;;2.57;2.07;;;16.90;64.30;;;;;;5049106;28;20210;-46
2023/04/05 11:48:18;;;;;;;2.90;1.80;;;16.90;64.30;;;;;;5015323;28;20197;-46
2023/04/05 11:50:50;;;;;;;2.03;1.80;;;17.00;64.60;;;;;;5047109;28;20209;-46
2023/04/05 11:53:23;;;;;;;2.87;1.93;;;17.00;64.50;;;;;;5052653;28;20198;-46
2023/04/05 11:55:51;;;;;;;3.23;2.13;;;17.00;64.60;;;;;;5048478;28;20558;-46
2023/04/05 11:58:24;;;;;;;2.77;1.90;;;17.00;64.50;;;;;;5035178;28;20222;-46
2023/04/05 12:01:07;;;;;;;2.33;1.83;;;17.00;64.60;;;;;;5019519;28;20978;-46
2023/04/05 12:03:36;;;;;;;3.43;1.90;;;17.00;64.70;;;;;;5043211;28;20212;-46
2023/04/05 12:06:11;;;;;;;2.40;2.17;;;17.00;64.80;;;;;;5035882;28;20754;-46
2023/04/05 12:08:49;;;;;;;4.47;1.90;;;17.10;64.90;;;;;;5048917;28;20566;-46
2023/04/05 12:11:40;;;;;;;2.60;1.53;;;17.10;64.80;;;;;;5032360;28;20558;-46
2023/04/05 12:14:10;;;;;;;2.53;2.03;;;17.10;64.60;;;;;;5049039;28;20212;-46
2023/04/05 12:16:53;;;;;;;3.23;1.73;;;17.10;64.70;;;;;;5046005;28;20280;-46
2023/04/05 12:19:28;;;;;;;2.43;2.00;;;17.10;64.70;;;;;;5045780;28;20237;-46
2023/04/05 12:22:00;;;;;;;3.17;1.97;;;17.20;64.60;;;;;;5030884;28;20214;-46
2023/04/05 12:24:31;;;;;;;2.50;2.00;;;17.20;64.50;;;;;;5046678;28;20663;-46
2023/04/05 12:27:02;;;;;;;2.17;1.93;;;17.20;64.60;;;;;;5047910;28;20226;-46
2023/04/05 12:29:34;;;;;;;2.97;2.27;;;17.20;65.30;;;;;;5039947;28;20191;-46
2023/04/05 12:32:05;;;;;;;3.23;1.93;;;17.20;64.50;;;;;;5051275;28;20278;-46
2023/04/05 12:34:37;;;;;;;2.80;2.00;;;17.20;64.50;;;;;;5048872;28;20210;-46
2023/04/05 12:37:05;;;;;;;2.80;2.00;;;17.30;64.50;;;;;;5028823;28;20563;-46
2023/04/05 12:39:37;;;;;;;4.03;2.23;;;17.30;64.50;;;;;;5049341;28;20614;-46
2023/04/05 12:42:07;;;;;;;2.47;1.87;;;17.30;64.50;;;;;;5023073;28;20234;-46
2023/04/05 12:44:37;;;;;;;2.27;2.00;;;17.30;64.50;;;;;;5037013;28;20210;-46
2023/04/05 12:47:09;;;;;;;2.80;2.07;;;17.30;64.40;;;;;;5051510;28;20195;-46
2023/04/05 12:49:55;;;;;;;2.60;1.87;;;17.30;64.50;;;;;;5051096;28;20202;-46
2023/04/05 12:52:29;;;;;;;3.23;1.80;;;17.30;64.60;;;;;;5047316;28;20681;-55
2023/04/05 12:55:21;;;;;;;2.83;1.90;;;17.40;64.60;;;;;;5048477;28;20193;-46
2023/04/05 12:57:59;;;;;;;3.77;2.33;;;17.30;64.60;;;;;;5035866;28;20260;-47
2023/04/05 13:00:38;;;;;;;3.77;2.37;;;17.40;64.60;;;;;;5046082;28;20237;-46
2023/04/05 13:03:26;;;;;;;2.27;1.67;;;17.40;64.60;;;;;;5049199;28;20245;-46
2023/04/05 13:05:57;;;;;;;2.30;1.77;;;17.40;64.40;;;;;;5039431;28;20629;-46
2023/04/05 13:08:29;;;;;;;2.77;2.13;;;17.40;64.40;;;;;;5048282;28;20202;-46
2023/04/05 13:11:01;;;;;;;3.30;2.50;;;17.40;64.30;;;;;;5026923;28;20225;-47
2023/04/05 13:13:34;;;;;;;2.30;2.10;;;17.40;64.20;;;;;;5045921;28;20812;-47
2023/04/05 13:16:04;;;;;;;3.30;2.20;;;17.50;63.00;;;;;;5029570;28;20217;-47
2023/04/05 13:18:47;;;;;;;2.83;2.43;;;17.60;62.80;;;;;;5046903;28;20250;-47
2023/04/05 13:21:18;;;;;;;4.90;2.00;;;17.70;63.10;;;;;;5013501;28;20552;-47
2023/04/05 13:23:49;;;;;;;5.27;2.37;;;17.80;62.40;;;;;;5049718;28;20186;-46